createdAt,value
2022-07-25T00:00:00.461Z,26.90
2022-07-25T00:03:04.182Z,26.80
2022-07-25T00:06:07.701Z,26.80
2022-07-25T00:09:16.466Z,26.70
2022-07-25T00:12:21.809Z,26.70
2022-07-25T00:15:24.822Z,26.70
2022-07-25T00:18:28.157Z,26.70
2022-07-25T00:21:31.136Z,26.60
2022-07-25T00:24:34.481Z,26.60
2022-07-25T00:27:38.686Z,26.60
2022-07-25T00:30:42.064Z,26.60
2022-07-25T00:33:44.909Z,26.50
2022-07-25T00:36:48.038Z,26.50
2022-07-25T00:39:50.947Z,26.50
2022-07-25T00:42:55.139Z,26.30
2022-07-25T00:45:58.885Z,26.30
2022-07-25T00:49:02.545Z,26.20
2022-07-25T00:52:06.113Z,26.10
2022-07-25T00:55:09.684Z,26.10
2022-07-25T00:58:14.265Z,26.10
2022-07-25T01:01:17.453Z,26.00
2022-07-25T01:04:20.876Z,26.00
2022-07-25T01:07:24.399Z,25.90
2022-07-25T01:10:27.399Z,25.90
2022-07-25T01:13:33.589Z,25.90
2022-07-25T01:16:36.548Z,25.80
2022-07-25T01:19:39.413Z,25.80
2022-07-25T01:22:43.880Z,25.80
2022-07-25T01:25:46.809Z,25.70
2022-07-25T01:28:50.050Z,25.60
2022-07-25T01:31:53.014Z,25.60
2022-07-25T01:34:55.862Z,25.50
2022-07-25T01:38:00.087Z,25.50
2022-07-25T01:41:03.045Z,25.50
2022-07-25T01:44:06.568Z,25.40
2022-07-25T01:47:09.789Z,25.40
2022-07-25T01:50:12.722Z,25.30
2022-07-25T01:53:16.999Z,25.30
2022-07-25T01:56:21.305Z,25.20
2022-07-25T01:59:25.470Z,25.20
2022-07-25T02:02:28.415Z,25.10
2022-07-25T02:05:31.273Z,25.00
2022-07-25T02:08:35.725Z,25.10
2022-07-25T02:11:38.984Z,25.10
2022-07-25T02:14:41.972Z,25.10
2022-07-25T02:17:44.843Z,25.00
2022-07-25T02:20:47.754Z,25.10
2022-07-25T02:23:51.943Z,25.00
2022-07-25T02:26:54.841Z,25.00
2022-07-25T02:29:57.751Z,24.90
2022-07-25T02:33:00.946Z,24.90
2022-07-25T02:36:03.869Z,24.90
2022-07-25T02:39:08.179Z,24.80
2022-07-25T02:42:11.023Z,24.80
2022-07-25T02:45:13.950Z,24.80
2022-07-25T02:48:16.858Z,24.70
2022-07-25T02:51:19.718Z,24.60
2022-07-25T02:54:23.903Z,24.50
2022-07-25T02:57:26.885Z,24.50
2022-07-25T03:00:30.368Z,24.50
2022-07-25T03:03:33.278Z,24.40
2022-07-25T03:06:36.459Z,24.40
2022-07-25T03:09:40.702Z,24.40
2022-07-25T03:12:44.669Z,24.40
2022-07-25T03:15:47.568Z,24.40
2022-07-25T03:18:50.437Z,24.30
2022-07-25T03:21:53.283Z,24.20
2022-07-25T03:24:57.498Z,24.20
2022-07-25T03:28:00.810Z,24.20
2022-07-25T03:31:03.871Z,24.20
2022-07-25T03:34:07.332Z,24.20
2022-07-25T03:37:10.575Z,24.20
2022-07-25T03:40:15.944Z,24.20
2022-07-25T03:43:18.978Z,24.10
2022-07-25T03:46:21.942Z,24.10
2022-07-25T03:49:24.857Z,24.00
2022-07-25T03:52:27.733Z,24.00
2022-07-25T03:55:31.977Z,24.00
2022-07-25T03:58:34.841Z,24.00
2022-07-25T04:01:38.142Z,24.00
2022-07-25T04:04:41.054Z,23.90
2022-07-25T04:07:43.919Z,23.80
2022-07-25T04:10:48.120Z,23.80
2022-07-25T04:13:51.369Z,23.80
2022-07-25T04:16:54.290Z,23.80
2022-07-25T04:19:57.460Z,23.80
2022-07-25T04:23:00.330Z,23.80
2022-07-25T04:26:04.676Z,23.80
2022-07-25T04:29:07.669Z,23.80
2022-07-25T04:32:10.914Z,23.80
2022-07-25T04:35:13.922Z,23.80
2022-07-25T04:38:16.799Z,23.80
2022-07-25T04:41:21.034Z,23.80
2022-07-25T04:44:24.449Z,23.90
2022-07-25T04:47:27.403Z,23.90
2022-07-25T04:50:30.903Z,23.90
2022-07-25T04:53:33.810Z,23.90
2022-07-25T04:56:38.054Z,24.00
2022-07-25T04:59:41.085Z,24.10
2022-07-25T05:02:44.478Z,24.10
2022-07-25T05:05:47.416Z,24.10
2022-07-25T05:08:50.330Z,24.20
2022-07-25T05:11:56.601Z,24.20
2022-07-25T05:14:59.633Z,24.20
2022-07-25T05:18:02.499Z,24.20
2022-07-25T05:21:05.514Z,24.20
2022-07-25T05:24:09.195Z,24.20
2022-07-25T05:27:13.744Z,24.20
2022-07-25T05:30:16.690Z,24.20
2022-07-25T05:33:19.531Z,24.20
2022-07-25T05:36:22.391Z,24.30
2022-07-25T05:39:25.253Z,24.40
2022-07-25T05:42:29.471Z,24.30
2022-07-25T05:45:32.430Z,24.30
2022-07-25T05:48:35.316Z,24.40
2022-07-25T05:51:38.248Z,24.40
2022-07-25T05:54:42.888Z,24.40
2022-07-25T05:57:47.093Z,24.40
2022-07-25T06:00:50.977Z,24.50
2022-07-25T06:03:53.942Z,24.50
2022-07-25T06:06:57.000Z,24.50
2022-07-25T06:09:59.882Z,24.60
2022-07-25T06:13:04.137Z,24.60
2022-07-25T06:16:08.723Z,24.70
2022-07-25T06:19:11.722Z,24.70
2022-07-25T06:22:14.779Z,24.70
2022-07-25T06:25:17.701Z,24.80
2022-07-25T06:28:21.969Z,24.90
2022-07-25T06:31:24.886Z,25.00
2022-07-25T06:34:28.891Z,25.10
2022-07-25T06:37:31.921Z,25.10
2022-07-25T06:40:34.837Z,25.20
2022-07-25T06:43:39.047Z,25.20
2022-07-25T06:46:42.036Z,25.30
2022-07-25T06:49:44.947Z,25.20
2022-07-25T06:52:48.248Z,25.40
2022-07-25T06:55:51.113Z,25.40
2022-07-25T06:58:55.301Z,25.50
2022-07-25T07:01:58.161Z,25.60
2022-07-25T07:05:01.146Z,25.40
2022-07-25T07:08:05.026Z,25.50
2022-07-25T07:11:08.358Z,25.70
2022-07-25T07:14:12.566Z,25.80
2022-07-25T07:17:15.426Z,25.90
2022-07-25T07:20:18.299Z,25.90
2022-07-25T07:23:21.310Z,26.10
2022-07-25T07:26:24.718Z,26.10
2022-07-25T07:29:35.486Z,26.30
2022-07-25T07:32:40.915Z,26.30
2022-07-25T07:35:45.350Z,26.30
2022-07-25T07:38:48.341Z,26.50
2022-07-25T07:41:51.231Z,26.60
2022-07-25T07:44:55.430Z,26.70
2022-07-25T07:47:58.516Z,26.70
2022-07-25T07:51:02.600Z,26.80
2022-07-25T07:54:23.218Z,26.80
2022-07-25T07:57:26.164Z,26.90
2022-07-25T08:00:31.935Z,27.10
2022-07-25T08:03:34.981Z,27.20
2022-07-25T08:06:37.857Z,27.40
2022-07-25T08:09:40.729Z,27.50
2022-07-25T08:12:43.663Z,27.60
2022-07-25T08:15:50.462Z,27.80
2022-07-25T08:18:53.382Z,27.70
2022-07-25T08:21:56.709Z,27.70
2022-07-25T08:24:59.555Z,27.90
2022-07-25T08:28:02.460Z,27.90
2022-07-25T08:31:07.070Z,28.10
2022-07-25T08:34:10.183Z,28.20
2022-07-25T08:37:14.206Z,28.10
2022-07-25T08:40:18.669Z,28.30
2022-07-25T08:43:21.846Z,28.50
2022-07-25T08:46:28.720Z,28.70
2022-07-25T08:49:31.790Z,28.80
2022-07-25T08:52:36.187Z,28.90
2022-07-25T08:55:39.434Z,29.00
2022-07-25T08:58:44.044Z,29.10
2022-07-25T09:01:48.855Z,29.30
2022-07-25T09:04:51.848Z,29.40
2022-07-25T09:07:56.421Z,29.60
2022-07-25T09:10:59.882Z,29.60
2022-07-25T09:14:05.889Z,29.60
2022-07-25T09:17:22.376Z,29.70
2022-07-25T09:20:37.427Z,29.70
2022-07-25T09:23:40.723Z,29.80
2022-07-25T09:26:49.131Z,30.00
2022-07-25T09:29:52.135Z,30.20
2022-07-25T09:33:02.687Z,30.10
2022-07-25T09:36:12.914Z,30.10
2022-07-25T09:39:15.866Z,30.20
2022-07-25T09:42:24.421Z,30.30
2022-07-25T09:45:31.393Z,30.60
2022-07-25T09:48:36.249Z,30.80
2022-07-25T09:51:39.296Z,31.00
2022-07-25T09:54:42.298Z,31.20
2022-07-25T09:57:47.142Z,31.30
2022-07-25T10:00:50.801Z,31.40
2022-07-25T10:04:03.825Z,31.40
2022-07-25T10:07:10.537Z,31.20
2022-07-25T10:10:24.885Z,31.20
2022-07-25T10:13:32.373Z,31.30
2022-07-25T10:16:46.701Z,31.50
2022-07-25T10:19:55.467Z,31.60
2022-07-25T10:23:01.426Z,31.80
2022-07-25T10:26:09.301Z,32.00
2022-07-25T10:29:14.069Z,32.00
2022-07-25T10:32:17.967Z,32.20
2022-07-25T10:35:22.314Z,32.40
2022-07-25T10:38:26.344Z,32.30
2022-07-25T10:41:30.298Z,32.10
2022-07-25T10:44:42.486Z,32.10
2022-07-25T10:47:54.920Z,32.30
2022-07-25T10:51:04.618Z,32.30
2022-07-25T10:54:15.341Z,32.30
2022-07-25T10:57:18.246Z,32.70
2022-07-25T11:00:21.730Z,32.90
2022-07-25T11:03:26.342Z,33.10
2022-07-25T11:06:35.285Z,33.30
2022-07-25T11:09:38.532Z,33.30
2022-07-25T11:12:45.261Z,33.10
2022-07-25T11:15:48.562Z,33.10
2022-07-25T11:18:51.547Z,33.20
2022-07-25T11:21:58.049Z,33.30
2022-07-25T11:25:01.607Z,33.50
2022-07-25T11:28:04.795Z,33.60
2022-07-25T11:31:08.129Z,33.80
2022-07-25T11:34:11.199Z,33.50
2022-07-25T11:37:16.735Z,33.70
2022-07-25T11:40:20.919Z,34.00
2022-07-25T11:43:25.836Z,34.20
2022-07-25T11:46:28.807Z,34.30
2022-07-25T11:49:32.000Z,34.60
2022-07-25T11:52:38.021Z,34.50
2022-07-25T11:55:42.809Z,34.70
2022-07-25T11:58:51.742Z,34.80
2022-07-25T12:01:54.707Z,34.80
2022-07-25T12:04:59.368Z,35.00
2022-07-25T12:08:12.481Z,35.00
2022-07-25T12:11:23.380Z,35.20
2022-07-25T12:14:26.262Z,35.10
2022-07-25T12:17:29.170Z,35.10
2022-07-25T12:20:34.207Z,35.20
2022-07-25T12:23:42.134Z,35.40
2022-07-25T12:26:45.106Z,35.60
2022-07-25T12:29:48.162Z,35.80
2022-07-25T12:32:51.242Z,35.90
2022-07-25T12:35:54.173Z,35.90
2022-07-25T12:38:58.463Z,35.90
2022-07-25T12:42:01.330Z,35.70
2022-07-25T12:45:04.994Z,35.70
2022-07-25T12:48:08.311Z,36.10
2022-07-25T12:51:11.222Z,36.10
2022-07-25T12:54:22.101Z,36.10
2022-07-25T12:57:25.617Z,36.30
2022-07-25T13:00:28.737Z,36.40
2022-07-25T13:03:31.723Z,36.40
2022-07-25T13:06:38.579Z,36.40
2022-07-25T13:09:43.332Z,36.50
2022-07-25T13:12:46.597Z,36.50
2022-07-25T13:15:49.495Z,36.30
2022-07-25T13:18:52.440Z,36.40
2022-07-25T13:21:55.404Z,36.60
2022-07-25T13:24:59.659Z,36.80
2022-07-25T13:28:04.319Z,37.00
2022-07-25T13:31:13.870Z,37.00
2022-07-25T13:34:16.802Z,37.00
2022-07-25T13:37:19.797Z,37.10
2022-07-25T13:40:24.165Z,37.10
2022-07-25T13:43:27.162Z,36.90
2022-07-25T13:46:30.152Z,37.00
2022-07-25T13:49:33.672Z,37.10
2022-07-25T13:52:37.733Z,37.20
2022-07-25T13:55:42.266Z,37.40
2022-07-25T13:58:45.200Z,37.20
2022-07-25T14:01:51.163Z,37.00
2022-07-25T14:04:54.462Z,36.90
2022-07-25T14:07:57.355Z,37.10
2022-07-25T14:11:01.588Z,37.10
2022-07-25T14:14:04.645Z,37.10
2022-07-25T14:17:07.711Z,37.10
2022-07-25T14:20:11.923Z,37.20
2022-07-25T14:23:14.815Z,37.20
2022-07-25T14:26:19.121Z,37.20
2022-07-25T14:29:25.930Z,37.30
2022-07-25T14:32:31.658Z,37.30
2022-07-25T14:35:35.415Z,37.30
2022-07-25T14:38:38.354Z,37.30
2022-07-25T14:41:43.707Z,37.40
2022-07-25T14:44:47.449Z,37.40
2022-07-25T14:47:50.398Z,37.00
2022-07-25T14:50:53.286Z,36.70
2022-07-25T14:53:56.139Z,36.80
2022-07-25T14:57:00.398Z,36.70
2022-07-25T15:00:03.740Z,36.80
2022-07-25T15:03:06.608Z,36.70
2022-07-25T15:06:10.393Z,36.60
2022-07-25T15:09:13.304Z,36.40
2022-07-25T15:12:19.714Z,36.50
2022-07-25T15:15:22.618Z,36.60
2022-07-25T15:18:25.492Z,36.60
2022-07-25T15:21:28.442Z,36.40
2022-07-25T15:24:40.110Z,36.50
2022-07-25T15:27:55.863Z,36.40
2022-07-25T15:30:58.908Z,36.40
2022-07-25T15:34:01.925Z,36.40
2022-07-25T15:37:04.918Z,36.40
2022-07-25T15:40:08.813Z,36.40
2022-07-25T15:43:13.341Z,36.30
2022-07-25T15:46:17.937Z,36.20
2022-07-25T15:49:22.526Z,36.10
2022-07-25T15:52:26.597Z,35.90
2022-07-25T15:55:29.961Z,35.90
2022-07-25T15:58:34.225Z,36.00
2022-07-25T16:01:37.200Z,36.00
2022-07-25T16:04:40.219Z,36.00
2022-07-25T16:07:43.272Z,35.90
2022-07-25T16:10:46.173Z,35.90
2022-07-25T16:13:50.471Z,35.80
2022-07-25T16:16:54.628Z,35.80
2022-07-25T16:19:57.770Z,35.80
2022-07-25T16:23:00.912Z,35.80
2022-07-25T16:26:04.337Z,35.80
2022-07-25T16:29:08.830Z,35.60
2022-07-25T16:32:11.991Z,35.60
2022-07-25T16:35:14.911Z,35.50
2022-07-25T16:38:18.142Z,35.50
2022-07-25T16:41:21.227Z,35.60
2022-07-25T16:44:25.700Z,35.60
2022-07-25T16:47:28.787Z,35.40
2022-07-25T16:50:31.701Z,35.30
2022-07-25T16:53:36.208Z,35.30
2022-07-25T16:56:39.827Z,35.30
2022-07-25T16:59:44.222Z,35.20
2022-07-25T17:02:47.477Z,35.10
2022-07-25T17:05:51.761Z,35.10
2022-07-25T17:08:54.945Z,35.20
2022-07-25T17:11:57.999Z,35.20
2022-07-25T17:15:02.347Z,35.20
2022-07-25T17:18:05.795Z,35.20
2022-07-25T17:21:09.453Z,35.10
2022-07-25T17:24:12.332Z,35.10
2022-07-25T17:27:16.078Z,35.10
2022-07-25T17:30:20.336Z,35.10
2022-07-25T17:33:23.222Z,35.10
2022-07-25T17:36:26.369Z,35.10
2022-07-25T17:39:29.826Z,35.00
2022-07-25T17:42:32.805Z,34.90
2022-07-25T17:45:37.229Z,34.90
2022-07-25T17:48:41.523Z,34.90
2022-07-25T17:51:44.491Z,34.80
2022-07-25T17:54:47.373Z,34.70
2022-07-25T17:57:53.880Z,34.70
2022-07-25T18:01:01.162Z,34.70
2022-07-25T18:04:04.837Z,34.70
2022-07-25T18:07:08.073Z,34.70
2022-07-25T18:10:11.218Z,34.50
2022-07-25T18:13:14.862Z,34.60
2022-07-25T18:16:19.300Z,34.60
2022-07-25T18:19:23.503Z,34.50
2022-07-25T18:22:27.016Z,34.40
2022-07-25T18:25:29.928Z,34.30
2022-07-25T18:28:32.872Z,34.20
2022-07-25T18:31:37.464Z,33.90
2022-07-25T18:34:40.410Z,33.90
2022-07-25T18:37:43.476Z,33.80
2022-07-25T18:40:46.403Z,33.70
2022-07-25T18:43:50.118Z,33.70
2022-07-25T18:46:55.216Z,33.70
2022-07-25T18:49:58.457Z,33.70
2022-07-25T18:53:01.584Z,33.70
2022-07-25T18:56:05.902Z,33.60
2022-07-25T18:59:09.299Z,33.50
2022-07-25T19:02:15.113Z,33.60
2022-07-25T19:05:18.268Z,33.50
2022-07-25T19:08:21.250Z,33.40
2022-07-25T19:11:24.186Z,33.40
2022-07-25T19:14:28.156Z,33.30
2022-07-25T19:17:33.223Z,33.30
2022-07-25T19:20:36.285Z,33.20
2022-07-25T19:23:39.353Z,33.10
2022-07-25T19:26:42.403Z,33.10
2022-07-25T19:29:45.345Z,33.00
2022-07-25T19:32:49.549Z,32.90
2022-07-25T19:35:52.579Z,32.80
2022-07-25T19:38:55.539Z,32.70
2022-07-25T19:41:58.440Z,32.70
2022-07-25T19:45:01.360Z,32.60
2022-07-25T19:48:06.117Z,32.50
2022-07-25T19:51:08.984Z,32.30
2022-07-25T19:54:12.175Z,32.20
2022-07-25T19:57:15.168Z,32.20
2022-07-25T20:00:18.274Z,32.10
2022-07-25T20:03:23.388Z,32.00
2022-07-25T20:06:26.901Z,31.80
2022-07-25T20:09:30.352Z,31.70
2022-07-25T20:12:34.023Z,31.70
2022-07-25T20:15:37.785Z,31.60
2022-07-25T20:18:41.998Z,31.70
2022-07-25T20:21:45.069Z,31.60
2022-07-25T20:24:48.049Z,31.40
2022-07-25T20:27:51.016Z,31.30
2022-07-25T20:30:55.820Z,31.20
2022-07-25T20:34:00.413Z,31.10
2022-07-25T20:37:03.376Z,30.90
2022-07-25T20:40:08.812Z,30.90
2022-07-25T20:43:11.907Z,30.80
2022-07-25T20:46:14.925Z,30.70
2022-07-25T20:49:19.294Z,30.50
2022-07-25T20:52:22.224Z,30.50
2022-07-25T20:55:25.202Z,30.40
2022-07-25T20:58:28.064Z,30.40
2022-07-25T21:01:31.860Z,30.40
2022-07-25T21:04:36.130Z,30.30
2022-07-25T21:07:39.008Z,29.90
2022-07-25T21:10:42.111Z,29.90
2022-07-25T21:13:44.961Z,29.60
2022-07-25T21:16:48.249Z,29.40
2022-07-25T21:19:52.497Z,29.30
2022-07-25T21:22:56.259Z,29.10
2022-07-25T21:25:59.153Z,29.00
2022-07-25T21:29:02.017Z,28.70
2022-07-25T21:32:05.540Z,28.40
2022-07-25T21:35:10.780Z,28.00
2022-07-25T21:38:13.680Z,28.10
2022-07-25T21:41:31.073Z,28.30
2022-07-25T21:44:33.938Z,28.30
2022-07-25T21:47:36.832Z,28.20
2022-07-25T21:50:42.230Z,28.10
2022-07-25T21:53:47.662Z,28.10
2022-07-25T21:56:50.555Z,28.10
2022-07-25T21:59:53.401Z,28.00
2022-07-25T22:02:56.403Z,27.80
2022-07-25T22:06:00.686Z,27.80
2022-07-25T22:09:03.655Z,27.50
2022-07-25T22:12:07.349Z,27.20
2022-07-25T22:15:14.563Z,26.90
2022-07-25T22:18:17.393Z,27.00
2022-07-25T22:21:21.651Z,27.00
2022-07-25T22:24:24.536Z,26.90
2022-07-25T22:27:27.433Z,26.50
2022-07-25T22:30:30.332Z,26.50
2022-07-25T22:33:34.825Z,26.50
2022-07-25T22:36:39.049Z,26.40
2022-07-25T22:39:41.917Z,26.30
2022-07-25T22:42:44.781Z,26.00
2022-07-25T22:45:47.762Z,25.90
2022-07-25T22:48:50.744Z,25.80
2022-07-25T22:51:54.962Z,25.70
2022-07-25T22:54:57.852Z,25.80
2022-07-25T22:58:00.712Z,25.60
2022-07-25T23:01:03.577Z,25.60
2022-07-25T23:04:06.752Z,25.60
2022-07-25T23:07:11.183Z,25.60
2022-07-25T23:10:15.132Z,25.70
2022-07-25T23:13:18.795Z,25.80
2022-07-25T23:16:21.984Z,25.60
2022-07-25T23:19:24.950Z,25.40
2022-07-25T23:22:30.154Z,25.50
2022-07-25T23:25:33.087Z,25.60
2022-07-25T23:28:35.981Z,25.50
2022-07-25T23:31:38.862Z,25.40
2022-07-25T23:34:41.805Z,25.30
2022-07-25T23:37:46.065Z,25.20
2022-07-25T23:40:49.781Z,25.00
2022-07-25T23:43:57.108Z,25.10
2022-07-25T23:47:02.043Z,25.20
2022-07-25T23:50:05.874Z,25.30
2022-07-25T23:53:10.062Z,25.30
2022-07-25T23:56:17.295Z,25.40
2022-07-25T23:59:23.205Z,25.40
